Time,TemperatureF,DewpointF,PressureIn,WindDirection,WindDirectionDegrees,WindSpeedMPH,WindSpeedGustMPH,Humidity,HourlyPrecipIn,Conditions,Clouds,dailyrainin,SolarRadiationWatts/m^2,SoftwareType,DateUTC
2013-11-24 00:32:00,40.9,35.8,30.35,NNE,15,5.0,8.0,82,0.00,,,0.00,0,Wunderground v.1.15,2013-11-24 06:32:00,
2013-11-24 00:33:00,40.9,35.8,30.35,North,354,5.0,8.0,82,0.00,,,0.00,0,Wunderground v.1.15,2013-11-24 06:33:00,
2013-11-24 00:38:00,40.7,35.3,30.35,North,5,3.0,8.0,81,0.00,,,0.00,0,Wunderground v.1.15,2013-11-24 06:38:00,
2013-11-24 00:42:00,40.7,35.3,30.35,NNE,23,3.0,5.0,81,0.00,,,0.00,0,Wunderground v.1.15,2013-11-24 06:42:00,
2013-11-24 00:47:00,40.5,35.4,30.35,North,10,3.0,8.0,82,0.00,,,0.00,0,Wunderground v.1.15,2013-11-24 06:47:00,
2013-11-24 00:53:00,40.4,35.0,30.35,North,10,2.0,7.0,81,0.00,,,0.00,0,Wunderground v.1.15,2013-11-24 06:53:00,
2013-11-24 00:58:00,40.3,34.9,30.35,East,83,3.0,7.0,81,0.00,,,0.00,0,Wunderground v.1.15,2013-11-24 06:58:00,
2013-11-24 01:04:00,40.1,34.7,30.35,NE,34,3.0,7.0,81,0.00,,,0.00,0,Wunderground v.1.15,2013-11-24 07:04:00,
2013-11-24 01:09:00,40.0,34.6,30.35,NE,35,3.0,7.0,81,0.00,,,0.00,0,Wunderground v.1.15,2013-11-24 07:09:00,
2013-11-24 01:15:00,39.9,34.9,30.36,North,354,2.0,5.0,82,0.00,,,0.00,0,Wunderground v.1.15,2013-11-24 07:15:00,
2013-11-24 01:20:00,39.8,34.4,30.36,North,5,1.0,5.0,81,0.00,,,0.00,0,Wunderground v.1.15,2013-11-24 07:20:00,
2013-11-24 02:48:00,37.7,31.5,30.36,NNE,21,3.0,10.0,78,0.00,,,0.00,0,Wunderground v.1.15,2013-11-24 08:48:00,
2013-11-24 02:58:00,37.5,30.9,30.35,NE,40,3.0,11.0,77,0.00,,,0.00,0,Wunderground v.1.15,2013-11-24 08:58:00,
2013-11-24 03:03:00,37.3,31.1,30.35,NNE,29,4.0,12.0,78,0.00,,,0.00,0,Wunderground v.1.15,2013-11-24 09:03:00,
2013-11-24 03:08:00,37.3,30.7,30.36,NE,39,4.0,12.0,77,0.00,,,0.00,0,Wunderground v.1.15,2013-11-24 09:08:00,
2013-11-24 03:14:00,37.1,30.9,30.36,NE,39,3.0,10.0,78,0.00,,,0.00,0,Wunderground v.1.15,2013-11-24 09:14:00,
2013-11-24 03:19:00,37.0,30.8,30.36,NNE,25,3.0,12.0,78,0.00,,,0.00,0,Wunderground v.1.15,2013-11-24 09:19:00,
2013-11-24 03:24:00,36.9,30.7,30.36,NNW,335,3.0,10.0,78,0.00,,,0.00,0,Wunderground v.1.15,2013-11-24 09:24:00,
2013-11-24 03:29:00,36.8,30.6,30.36,NNE,15,2.0,10.0,78,0.00,,,0.00,0,Wunderground v.1.15,2013-11-24 09:29:00,
2013-11-24 03:35:00,36.6,30.4,30.36,NE,47,2.0,10.0,78,0.00,,,0.00,0,Wunderground v.1.15,2013-11-24 09:35:00,
2013-11-24 03:40:00,36.5,30.3,30.36,North,360,3.0,3.0,78,0.00,,,0.00,0,Wunderground v.1.15,2013-11-24 09:40:00,
2013-11-24 03:45:00,36.4,30.2,30.35,NNE,29,3.0,11.0,78,0.00,,,0.00,0,Wunderground v.1.15,2013-11-24 09:45:00,
2013-11-24 03:50:00,36.3,30.1,30.35,NE,42,3.0,3.0,78,0.00,,,0.00,0,Wunderground v.1.15,2013-11-24 09:50:00,
2013-11-24 03:56:00,36.1,29.9,30.35,NE,43,4.0,10.0,78,0.00,,,0.00,0,Wunderground v.1.15,2013-11-24 09:56:00,
2013-11-24 04:01:00,36.1,29.9,30.35,NNE,23,5.0,11.0,78,0.00,,,0.00,0,Wunderground v.1.15,2013-11-24 10:01:00,
2013-11-24 04:07:00,36.0,29.8,30.35,NNE,31,4.0,11.0,78,0.00,,,0.00,0,Wunderground v.1.15,2013-11-24 10:07:00,
2013-11-24 04:12:00,35.9,29.7,30.35,ENE,59,4.0,10.0,78,0.00,,,0.00,0,Wunderground v.1.15,2013-11-24 10:12:00,
2013-11-24 04:18:00,35.8,29.6,30.35,NE,44,5.0,10.0,78,0.00,,,0.00,0,Wunderground v.1.15,2013-11-24 10:18:00,
2013-11-24 04:23:00,35.7,29.8,30.35,NNE,29,4.0,10.0,79,0.00,,,0.00,0,Wunderground v.1.15,2013-11-24 10:23:00,
2013-11-24 04:29:00,35.6,29.7,30.35,North,356,3.0,10.0,79,0.00,,,0.00,0,Wunderground v.1.15,2013-11-24 10:29:00,
2013-11-24 04:34:00,35.5,29.6,30.35,NNE,25,3.0,10.0,79,0.00,,,0.00,0,Wunderground v.1.15,2013-11-24 10:34:00,
2013-11-24 04:39:00,35.4,29.5,30.35,NNE,21,3.0,10.0,79,0.00,,,0.00,0,Wunderground v.1.15,2013-11-24 10:39:00,
2013-11-24 04:45:00,35.4,29.5,30.36,NNE,15,4.0,10.0,79,0.00,,,0.00,0,Wunderground v.1.15,2013-11-24 10:45:00,
2013-11-24 04:50:00,35.3,29.4,30.37,NNW,348,2.0,10.0,79,0.00,,,0.00,0,Wunderground v.1.15,2013-11-24 10:50:00,
2013-11-24 04:55:00,35.3,29.4,30.37,North,5,1.0,10.0,79,0.00,,,0.00,0,Wunderground v.1.15,2013-11-24 10:55:00,
2013-11-24 05:00:00,35.2,29.3,30.38,North,360,2.0,2.0,79,0.00,,,0.00,0,Wunderground v.1.15,2013-11-24 11:00:00,
2013-11-24 05:06:00,35.2,29.3,30.38,NNE,32,2.0,10.0,79,0.00,,,0.00,0,Wunderground v.1.15,2013-11-24 11:06:00,
2013-11-24 05:11:00,35.1,29.2,30.38,NW,321,1.0,10.0,79,0.00,,,0.00,0,Wunderground v.1.15,2013-11-24 11:11:00,
2013-11-24 05:16:00,35.0,29.1,30.38,NNE,25,2.0,10.0,79,0.00,,,0.00,0,Wunderground v.1.15,2013-11-24 11:16:00,
2013-11-24 05:27:00,34.8,29.3,30.38,NE,40,2.0,10.0,80,0.00,,,0.00,0,Wunderground v.1.15,2013-11-24 11:27:00,
2013-11-24 05:33:00,34.7,28.9,30.38,NE,55,3.0,10.0,79,0.00,,,0.00,0,Wunderground v.1.15,2013-11-24 11:33:00,
2013-11-24 05:41:00,34.4,28.6,30.37,NNE,28,3.0,8.0,79,0.00,,,0.00,0,Wunderground v.1.15,2013-11-24 11:41:00,
2013-11-24 05:53:00,34.4,28.6,30.39,NE,52,2.0,10.0,79,0.00,,,0.00,0,Wunderground v.1.15,2013-11-24 11:53:00,
2013-11-24 06:05:00,34.4,28.9,30.38,NNE,20,2.0,10.0,80,0.00,,,0.00,0,Wunderground v.1.15,2013-11-24 12:05:00,
2013-11-24 06:17:00,34.1,28.6,30.38,ENE,69,3.0,12.0,80,0.00,,,0.00,0,Wunderground v.1.15,2013-11-24 12:17:00,
2013-11-24 06:29:00,33.9,28.4,30.38,NE,54,4.0,10.0,80,0.00,,,0.00,0,Wunderground v.1.15,2013-11-24 12:29:00,
2013-11-24 06:41:00,33.8,28.6,30.38,NE,35,2.0,10.0,81,0.00,,,0.00,9,Wunderground v.1.15,2013-11-24 12:41:00,
2013-11-24 06:53:00,33.6,28.4,30.38,NE,50,4.0,12.0,81,0.00,,,0.00,18,Wunderground v.1.15,2013-11-24 12:53:00,
2013-11-24 07:29:00,33.8,28.0,30.41,NE,44,3.0,10.0,79,0.00,,,0.00,49,Wunderground v.1.15,2013-11-24 13:29:00,
2013-11-24 07:43:00,34.2,27.7,30.41,North,360,3.0,10.0,77,0.00,,,0.00,160,Wunderground v.1.15,2013-11-24 13:43:00,
2013-11-24 07:53:00,34.4,27.3,30.41,NNE,29,5.0,10.0,75,0.00,,,0.00,183,Wunderground v.1.15,2013-11-24 13:53:00,
2013-11-24 07:58:00,34.6,27.2,30.41,NNW,347,7.0,21.0,74,0.00,,,0.00,149,Wunderground v.1.15,2013-11-24 13:58:00,
2013-11-24 08:03:00,34.7,27.3,30.41,NNE,19,7.0,13.0,74,0.00,,,0.00,200,Wunderground v.1.15,2013-11-24 14:03:00,
2013-11-24 08:08:00,34.8,27.4,30.41,North,1,6.0,13.0,74,0.00,,,0.00,207,Wunderground v.1.15,2013-11-24 14:08:00,
2013-11-24 08:13:00,35.0,27.2,30.41,NE,50,6.0,11.0,73,0.00,,,0.00,230,Wunderground v.1.15,2013-11-24 14:13:00,
2013-11-24 08:18:00,35.2,27.4,30.42,NNE,27,5.0,12.0,73,0.00,,,0.00,229,Wunderground v.1.15,2013-11-24 14:18:00,
2013-11-24 08:23:00,35.2,26.7,30.41,NNE,25,5.0,10.0,71,0.00,,,0.00,257,Wunderground v.1.15,2013-11-24 14:23:00,
2013-11-24 08:28:00,35.3,26.8,30.41,NNE,15,7.0,15.0,71,0.00,,,0.00,250,Wunderground v.1.15,2013-11-24 14:28:00,
2013-11-24 08:33:00,35.5,27.0,30.42,NE,56,7.0,11.0,71,0.00,,,0.00,250,Wunderground v.1.15,2013-11-24 14:33:00,
2013-11-24 08:38:00,35.9,27.1,30.42,ENE,72,6.0,11.0,70,0.00,,,0.00,322,Wunderground v.1.15,2013-11-24 14:38:00,
2013-11-24 08:43:00,36.2,27.4,30.42,NNE,15,4.0,10.0,70,0.00,,,0.00,323,Wunderground v.1.15,2013-11-24 14:43:00,
2013-11-24 08:48:00,36.4,27.2,30.42,North,10,4.0,10.0,69,0.00,,,0.00,318,Wunderground v.1.15,2013-11-24 14:48:00,
2013-11-24 08:53:00,36.2,26.6,30.42,NNE,28,6.0,10.0,68,0.00,,,0.00,316,Wunderground v.1.15,2013-11-24 14:53:00,
2013-11-24 08:58:00,36.1,26.6,30.42,NNE,23,8.0,10.0,68,0.00,,,0.00,329,Wunderground v.1.15,2013-11-24 14:58:00,
2013-11-24 09:03:00,36.2,27.0,30.42,North,5,6.0,10.0,69,0.00,,,0.00,352,Wunderground v.1.15,2013-11-24 15:03:00,
2013-11-24 09:08:00,36.6,27.0,30.42,NE,40,4.0,10.0,68,0.00,,,0.00,308,Wunderground v.1.15,2013-11-24 15:08:00,
2013-11-24 09:13:00,36.6,26.3,30.42,NNE,27,6.0,15.0,66,0.00,,,0.00,294,Wunderground v.1.15,2013-11-24 15:13:00,
2013-11-24 09:18:00,36.7,26.4,30.42,NE,37,7.0,15.0,66,0.00,,,0.00,318,Wunderground v.1.15,2013-11-24 15:18:00,
2013-11-24 09:51:00,37.8,25.5,30.42,NE,40,8.0,14.0,61,0.00,,,0.00,475,Wunderground v.1.15,2013-11-24 15:51:00,
2013-11-24 10:20:00,39.2,26.1,30.41,NE,45,7.0,10.0,59,0.00,,,0.00,468,Wunderground v.1.15,2013-11-24 16:20:00,
2013-11-24 10:25:00,39.3,27.0,30.41,North,10,5.0,10.0,61,0.00,,,0.00,424,Wunderground v.1.15,2013-11-24 16:25:00,
2013-11-24 10:31:00,39.6,26.8,30.41,NE,42,5.0,7.0,60,0.00,,,0.00,513,Wunderground v.1.15,2013-11-24 16:31:00,
2013-11-24 10:36:00,39.7,26.1,30.41,NE,42,5.0,11.0,58,0.00,,,0.00,501,Wunderground v.1.15,2013-11-24 16:36:00,
2013-11-24 10:42:00,40.1,25.6,30.41,ENE,62,6.0,10.0,56,0.00,,,0.00,538,Wunderground v.1.15,2013-11-24 16:42:00,
2013-11-24 10:48:00,40.3,25.8,30.41,NNW,341,6.0,10.0,56,0.00,,,0.00,555,Wunderground v.1.15,2013-11-24 16:48:00,
2013-11-24 10:53:00,40.9,27.2,30.41,NNW,337,3.0,10.0,58,0.00,,,0.00,570,Wunderground v.1.15,2013-11-24 16:53:00,
2013-11-24 10:58:00,41.4,26.9,30.40,NNE,27,2.0,10.0,56,0.00,,,0.00,571,Wunderground v.1.15,2013-11-24 16:58:00,
2013-11-24 11:03:00,41.7,27.1,30.40,NW,310,4.0,10.0,56,0.00,,,0.00,571,Wunderground v.1.15,2013-11-24 17:03:00,
2013-11-24 11:08:00,41.6,26.6,30.40,NE,44,5.0,10.0,55,0.00,,,0.00,413,Wunderground v.1.15,2013-11-24 17:08:00,
2013-11-24 11:14:00,41.7,26.7,30.40,NE,34,4.0,13.0,55,0.00,,,0.00,459,Wunderground v.1.15,2013-11-24 17:14:00,
2013-11-24 11:19:00,41.6,27.1,30.40,NE,47,4.0,13.0,56,0.00,,,0.00,492,Wunderground v.1.15,2013-11-24 17:19:00,
2013-11-24 11:24:00,41.9,26.4,30.40,NNE,32,4.0,10.0,54,0.00,,,0.00,492,Wunderground v.1.15,2013-11-24 17:24:00,
2013-11-24 12:23:00,44.4,27.4,30.36,North,350,5.0,10.0,51,0.00,,,0.00,591,Wunderground v.1.15,2013-11-24 18:23:00,
2013-11-24 12:41:00,45.0,26.5,30.35,North,5,4.0,10.0,48,0.00,,,0.00,570,Wunderground v.1.15,2013-11-24 18:41:00,
2013-11-24 12:47:00,45.0,27.0,30.35,ENE,67,4.0,10.0,49,0.00,,,0.00,552,Wunderground v.1.15,2013-11-24 18:47:00,
2013-11-24 12:52:00,45.2,27.2,30.35,North,10,4.0,10.0,49,0.00,,,0.00,554,Wunderground v.1.15,2013-11-24 18:52:00,
2013-11-24 12:58:00,45.4,27.8,30.34,ESE,105,4.0,10.0,50,0.00,,,0.00,573,Wunderground v.1.15,2013-11-24 18:58:00,
2013-11-24 13:03:00,45.9,26.8,30.34,North,360,3.0,10.0,47,0.00,,,0.00,561,Wunderground v.1.15,2013-11-24 19:03:00,
2013-11-24 13:08:00,46.0,26.9,30.34,ENE,61,3.0,10.0,47,0.00,,,0.00,538,Wunderground v.1.15,2013-11-24 19:08:00,
2013-11-24 13:13:00,46.0,26.9,30.34,NE,40,4.0,10.0,47,0.00,,,0.00,541,Wunderground v.1.15,2013-11-24 19:13:00,
2013-11-24 13:18:00,46.5,27.3,30.34,NNW,342,3.0,10.0,47,0.00,,,0.00,533,Wunderground v.1.15,2013-11-24 19:18:00,
2013-11-24 13:24:00,46.9,27.2,30.33,NE,36,3.0,10.0,46,0.00,,,0.00,524,Wunderground v.1.15,2013-11-24 19:24:00,
2013-11-24 13:29:00,46.9,26.6,30.33,North,5,4.0,12.0,45,0.00,,,0.00,517,Wunderground v.1.15,2013-11-24 19:29:00,
2013-11-24 14:08:00,47.4,27.1,30.31,NNE,25,4.0,10.0,45,0.00,,,0.00,446,Wunderground v.1.15,2013-11-24 20:08:00,
2013-11-24 14:39:00,47.0,26.2,30.31,North,5,5.0,10.0,44,0.00,,,0.00,380,Wunderground v.1.15,2013-11-24 20:39:00,
2013-11-24 14:46:00,47.4,27.1,30.30,NNE,15,4.0,10.0,45,0.00,,,0.00,343,Wunderground v.1.15,2013-11-24 20:46:00,
2013-11-24 15:16:00,47.8,26.9,30.31,NNE,21,2.0,10.0,44,0.00,,,0.00,272,Wunderground v.1.15,2013-11-24 21:16:00,
2013-11-24 15:21:00,47.7,27.4,30.31,NNE,31,3.0,10.0,45,0.00,,,0.00,230,Wunderground v.1.15,2013-11-24 21:21:00,
2013-11-24 15:26:00,47.7,27.9,30.31,NE,34,2.0,10.0,46,0.00,,,0.00,190,Wunderground v.1.15,2013-11-24 21:26:00,
2013-11-24 15:31:00,47.7,27.4,30.31,NNW,346,2.0,10.0,45,0.00,,,0.00,211,Wunderground v.1.15,2013-11-24 21:31:00,
2013-11-24 15:36:00,47.7,27.9,30.31,NNE,15,2.0,10.0,46,0.00,,,0.00,186,Wunderground v.1.15,2013-11-24 21:36:00,
2013-11-24 15:41:00,47.7,27.9,30.31,NE,34,1.0,10.0,46,0.00,,,0.00,91,Wunderground v.1.15,2013-11-24 21:41:00,
2013-11-24 15:47:00,47.3,27.0,30.32,NNE,25,2.0,10.0,45,0.00,,,0.00,156,Wunderground v.1.15,2013-11-24 21:47:00,
2013-11-24 15:52:00,47.2,28.0,30.32,NNW,335,3.0,10.0,47,0.00,,,0.00,137,Wunderground v.1.15,2013-11-24 21:52:00,
2013-11-24 15:57:00,47.0,27.8,30.32,North,10,3.0,10.0,47,0.00,,,0.00,120,Wunderground v.1.15,2013-11-24 21:57:00,
2013-11-24 16:03:00,46.9,27.7,30.32,ESE,106,3.0,10.0,47,0.00,,,0.00,120,Wunderground v.1.15,2013-11-24 22:03:00,
2013-11-24 16:08:00,46.8,27.6,30.32,North,358,3.0,10.0,47,0.00,,,0.00,79,Wunderground v.1.15,2013-11-24 22:08:00,
2013-11-24 16:13:00,46.7,27.5,30.32,NE,37,3.0,10.0,47,0.00,,,0.00,67,Wunderground v.1.15,2013-11-24 22:13:00,
2013-11-24 16:19:00,46.3,27.2,30.32,NNE,15,3.0,10.0,47,0.00,,,0.00,35,Wunderground v.1.15,2013-11-24 22:19:00,
2013-11-24 16:24:00,46.1,27.5,30.32,NE,54,2.0,10.0,48,0.00,,,0.00,35,Wunderground v.1.15,2013-11-24 22:24:00,
2013-11-24 16:29:00,45.8,27.7,30.32,NE,54,1.0,10.0,49,0.00,,,0.00,32,Wunderground v.1.15,2013-11-24 22:29:00,
2013-11-24 16:34:00,45.6,28.0,30.32,North,356,0.0,10.0,50,0.00,,,0.00,25,Wunderground v.1.15,2013-11-24 22:34:00,
2013-11-24 16:39:00,45.4,27.8,30.32,North,5,1.0,10.0,50,0.00,,,0.00,19,Wunderground v.1.15,2013-11-24 22:39:00,
2013-11-24 16:44:00,45.1,28.0,30.32,North,10,1.0,10.0,51,0.00,,,0.00,16,Wunderground v.1.15,2013-11-24 22:44:00,
2013-11-24 16:50:00,44.9,27.4,30.32,NNE,15,1.0,1.0,50,0.00,,,0.00,12,Wunderground v.1.15,2013-11-24 22:50:00,
2013-11-24 16:55:00,44.7,28.1,30.32,NNE,30,1.0,10.0,52,0.00,,,0.00,7,Wunderground v.1.15,2013-11-24 22:55:00,
2013-11-24 17:01:00,44.4,28.3,30.32,NE,49,1.0,10.0,53,0.00,,,0.00,0,Wunderground v.1.15,2013-11-24 23:01:00,
2013-11-24 17:06:00,44.2,28.1,30.32,NE,49,0.0,10.0,53,0.00,,,0.00,0,Wunderground v.1.15,2013-11-24 23:06:00,
2013-11-24 17:33:00,43.2,28.5,30.32,North,10,0.0,10.0,56,0.00,,,0.00,0,Wunderground v.1.15,2013-11-24 23:33:00,
2013-11-24 17:40:00,43.0,28.4,30.32,North,10,0.0,10.0,56,0.00,,,0.00,0,Wunderground v.1.15,2013-11-24 23:40:00,
2013-11-24 17:45:00,42.8,28.6,30.32,NNE,15,0.0,10.0,57,0.00,,,0.00,0,Wunderground v.1.15,2013-11-24 23:45:00,
2013-11-24 17:51:00,42.7,28.9,30.32,NNE,15,0.0,10.0,58,0.00,,,0.00,0,Wunderground v.1.15,2013-11-24 23:51:00,
2013-11-24 17:57:00,42.5,28.8,30.33,NNE,15,0.0,10.0,58,0.00,,,0.00,0,Wunderground v.1.15,2013-11-24 23:57:00,
2013-11-24 18:02:00,42.4,28.7,30.33,NNE,27,0.0,10.0,58,0.00,,,0.00,0,Wunderground v.1.15,2013-11-25 00:02:00,
2013-11-24 18:07:00,42.2,28.9,30.33,NE,50,0.0,10.0,59,0.00,,,0.00,0,Wunderground v.1.15,2013-11-25 00:07:00,
2013-11-24 18:13:00,42.1,28.8,30.32,North,10,1.0,10.0,59,0.00,,,0.00,0,Wunderground v.1.15,2013-11-25 00:13:00,
2013-11-24 18:19:00,42.0,28.3,30.32,North,5,1.0,10.0,58,0.00,,,0.00,0,Wunderground v.1.15,2013-11-25 00:19:00,
2013-11-24 18:24:00,41.9,28.6,30.32,NE,36,1.0,10.0,59,0.00,,,0.00,0,Wunderground v.1.15,2013-11-25 00:24:00,
2013-11-24 18:29:00,41.9,28.6,30.33,NE,40,1.0,10.0,59,0.00,,,0.00,0,Wunderground v.1.15,2013-11-25 00:29:00,
2013-11-24 18:39:00,41.7,28.0,30.33,NNE,23,1.0,10.0,58,0.00,,,0.00,0,Wunderground v.1.15,2013-11-25 00:39:00,
2013-11-24 18:47:00,41.6,28.3,30.33,NE,52,1.0,10.0,59,0.00,,,0.00,0,Wunderground v.1.15,2013-11-25 00:47:00,
2013-11-24 19:00:00,41.4,28.5,30.34,NNE,20,1.0,1.0,60,0.00,,,0.00,0,Wunderground v.1.15,2013-11-25 01:00:00,
2013-11-24 19:22:00,41.1,28.3,30.34,ENE,66,1.0,10.0,60,0.00,,,0.00,0,Wunderground v.1.15,2013-11-25 01:22:00,
2013-11-24 19:34:00,40.8,28.8,30.35,North,10,1.0,10.0,62,0.00,,,0.00,0,Wunderground v.1.15,2013-11-25 01:34:00,
2013-11-24 19:46:00,40.6,28.6,30.35,NE,40,1.0,10.0,62,0.00,,,0.00,0,Wunderground v.1.15,2013-11-25 01:46:00,
2013-11-24 20:08:00,40.4,28.0,30.35,ENE,58,2.0,10.0,61,0.00,,,0.00,0,Wunderground v.1.15,2013-11-25 02:08:00,
2013-11-24 20:14:00,40.3,27.5,30.36,ENE,66,1.0,10.0,60,0.00,,,0.00,0,Wunderground v.1.15,2013-11-25 02:14:00,
2013-11-24 20:19:00,40.2,27.8,30.36,NE,54,1.0,10.0,61,0.00,,,0.00,0,Wunderground v.1.15,2013-11-25 02:19:00,
2013-11-24 20:24:00,40.2,27.4,30.36,ENE,63,2.0,10.0,60,0.00,,,0.00,0,Wunderground v.1.15,2013-11-25 02:24:00,
2013-11-24 20:29:00,40.1,27.7,30.36,NNE,28,2.0,10.0,61,0.00,,,0.00,0,Wunderground v.1.15,2013-11-25 02:29:00,
2013-11-24 20:35:00,40.0,26.8,30.37,NE,37,1.0,10.0,59,0.00,,,0.00,0,Wunderground v.1.15,2013-11-25 02:35:00,
2013-11-24 20:40:00,40.0,26.8,30.37,ENE,71,1.0,1.0,59,0.00,,,0.00,0,Wunderground v.1.15,2013-11-25 02:40:00,
2013-11-24 20:46:00,39.8,27.0,30.36,NNE,21,1.0,10.0,60,0.00,,,0.00,0,Wunderground v.1.15,2013-11-25 02:46:00,
2013-11-24 20:51:00,39.8,26.6,30.35,NNE,15,2.0,10.0,59,0.00,,,0.00,0,Wunderground v.1.15,2013-11-25 02:51:00,
2013-11-24 20:56:00,39.7,26.9,30.35,NE,56,2.0,15.0,60,0.00,,,0.00,0,Wunderground v.1.15,2013-11-25 02:56:00,
2013-11-24 21:11:00,39.4,26.2,30.34,NNW,339,1.0,10.0,59,0.00,,,0.00,0,Wunderground v.1.15,2013-11-25 03:11:00,
2013-11-24 21:16:00,39.3,26.6,30.34,ENE,75,1.0,10.0,60,0.00,,,0.00,0,Wunderground v.1.15,2013-11-25 03:16:00,
2013-11-24 21:31:00,39.1,26.4,30.33,NNE,21,1.0,10.0,60,0.00,,,0.00,0,Wunderground v.1.15,2013-11-25 03:31:00,
2013-11-24 21:38:00,39.0,26.3,30.34,NE,53,2.0,10.0,60,0.00,,,0.00,0,Wunderground v.1.15,2013-11-25 03:38:00,
2013-11-24 21:43:00,38.9,25.8,30.34,NE,35,2.0,10.0,59,0.00,,,0.00,0,Wunderground v.1.15,2013-11-25 03:43:00,
2013-11-24 21:52:00,38.8,26.1,30.33,NE,50,1.0,10.0,60,0.00,,,0.00,0,Wunderground v.1.15,2013-11-25 03:52:00,
2013-11-24 22:04:00,38.6,25.9,30.33,NE,54,1.0,10.0,60,0.00,,,0.00,0,Wunderground v.1.15,2013-11-25 04:04:00,
2013-11-24 22:25:00,38.3,25.6,30.34,ESE,114,1.0,10.0,60,0.00,,,0.00,0,Wunderground v.1.15,2013-11-25 04:25:00,
2013-11-24 22:34:00,38.1,25.8,30.33,NNE,32,1.0,10.0,61,0.00,,,0.00,0,Wunderground v.1.15,2013-11-25 04:34:00,
2013-11-24 22:40:00,38.0,25.7,30.33,NE,51,0.0,10.0,61,0.00,,,0.00,0,Wunderground v.1.15,2013-11-25 04:40:00,
2013-11-24 22:46:00,37.9,25.6,30.32,East,80,0.0,10.0,61,0.00,,,0.00,0,Wunderground v.1.15,2013-11-25 04:46:00,
2013-11-24 22:51:00,37.9,25.6,30.31,East,82,1.0,10.0,61,0.00,,,0.00,0,Wunderground v.1.15,2013-11-25 04:51:00,
2013-11-24 22:56:00,37.8,25.5,30.31,ESE,109,0.0,10.0,61,0.00,,,0.00,0,Wunderground v.1.15,2013-11-25 04:56:00,
2013-11-24 23:01:00,37.7,25.5,30.31,North,354,0.0,10.0,61,0.00,,,0.00,0,Wunderground v.1.15,2013-11-25 05:01:00,
2013-11-24 23:02:00,37.7,25.5,30.32,East,85,1.0,10.0,61,0.00,,,0.00,0,Wunderground v.1.15,2013-11-25 05:02:00,
2013-11-24 23:04:00,37.7,25.1,30.32,ENE,75,1.0,10.0,60,0.00,,,0.00,0,Wunderground v.1.15,2013-11-25 05:04:00,
2013-11-24 23:06:00,37.7,25.1,30.33,ENE,57,1.0,10.0,60,0.00,,,0.00,0,Wunderground v.1.15,2013-11-25 05:06:00,
2013-11-24 23:09:00,37.7,25.1,30.33,ENE,57,0.0,10.0,60,0.00,,,0.00,0,Wunderground v.1.15,2013-11-25 05:09:00,
2013-11-24 23:12:00,37.7,25.1,30.33,NE,36,0.0,10.0,60,0.00,,,0.00,0,Wunderground v.1.15,2013-11-25 05:12:00,
2013-11-24 23:17:00,37.6,25.4,30.32,NE,48,0.0,10.0,61,0.00,,,0.00,0,Wunderground v.1.15,2013-11-25 05:17:00,
2013-11-24 23:23:00,37.5,25.3,30.32,ENE,74,1.0,10.0,61,0.00,,,0.00,0,Wunderground v.1.15,2013-11-25 05:23:00,
2013-11-24 23:28:00,37.4,25.6,30.32,NNW,348,0.0,10.0,62,0.00,,,0.00,0,Wunderground v.1.15,2013-11-25 05:28:00,
2013-11-24 23:33:00,37.3,25.8,30.31,ESE,106,0.0,10.0,63,0.00,,,0.00,0,Wunderground v.1.15,2013-11-25 05:33:00,
2013-11-24 23:38:00,37.1,25.7,30.31,East,92,0.0,10.0,63,0.00,,,0.00,0,Wunderground v.1.15,2013-11-25 05:38:00,
2013-11-24 23:43:00,37.1,25.7,30.31,East,92,0.0,10.0,63,0.00,,,0.00,0,Wunderground v.1.15,2013-11-25 05:43:00,
2013-11-24 23:48:00,37.0,25.6,30.31,NE,42,0.0,10.0,63,0.00,,,0.00,0,Wunderground v.1.15,2013-11-25 05:48:00,
2013-11-24 23:54:00,37.1,25.7,30.31,NE,38,1.0,10.0,63,0.00,,,0.00,0,Wunderground v.1.15,2013-11-25 05:54:00,
2013-11-24 23:59:00,37.1,26.8,30.31,NE,38,0.0,10.0,66,0.00,,,0.00,0,Wunderground v.1.15,2013-11-25 05:59:00,